createdAt,value
2023-02-04T00:00:55.604Z,10.38
2023-02-04T00:03:24.892Z,11.73
2023-02-04T00:05:54.079Z,13.18
2023-02-04T00:08:23.390Z,11.65
2023-02-04T00:10:54.641Z,12.98
2023-02-04T00:13:23.846Z,15.05
2023-02-04T00:15:52.965Z,13.60
2023-02-04T00:18:22.321Z,13.02
2023-02-04T00:20:51.448Z,12.27
2023-02-04T00:23:20.532Z,10.23
2023-02-04T00:25:49.940Z,10.40
2023-02-04T00:28:21.491Z,14.52
2023-02-04T00:30:55.699Z,13.82
2023-02-04T00:33:25.017Z,10.45
2023-02-04T00:35:54.062Z,9.63
2023-02-04T00:38:23.504Z,10.50
2023-02-04T00:40:52.922Z,11.05
2023-02-04T00:43:29.172Z,10.35
2023-02-04T00:46:03.668Z,8.68
2023-02-04T00:48:34.289Z,9.80
2023-02-04T00:51:06.822Z,9.00
2023-02-04T00:56:04.880Z,6.68
2023-02-04T00:58:35.990Z,9.00
2023-02-04T01:01:05.796Z,11.02
2023-02-04T01:03:34.945Z,9.18
2023-02-04T01:06:04.265Z,10.40
2023-02-04T01:08:38.341Z,10.40
2023-02-04T01:11:07.853Z,8.65
2023-02-04T01:13:38.967Z,10.57
2023-02-04T01:16:08.403Z,10.13
2023-02-04T01:18:37.815Z,10.52
2023-02-04T01:21:07.486Z,10.00
2023-02-04T01:23:37.058Z,10.20
2023-02-04T01:26:11.119Z,8.63
2023-02-04T01:28:42.321Z,9.77
2023-02-04T01:31:17.038Z,10.60
2023-02-04T01:33:52.529Z,8.77
2023-02-04T01:36:21.868Z,8.60
2023-02-04T01:38:51.455Z,9.73
2023-02-04T01:41:26.358Z,7.38
2023-02-04T01:43:57.632Z,7.80
2023-02-04T01:46:27.317Z,10.25
2023-02-04T01:48:56.619Z,11.68
2023-02-04T01:54:13.842Z,7.65
2023-02-04T01:56:51.176Z,9.47
2023-02-04T01:59:27.776Z,8.05
2023-02-04T02:01:56.999Z,7.60
2023-02-04T02:04:33.287Z,7.38
2023-02-04T02:07:09.483Z,11.13
2023-02-04T02:09:38.717Z,11.18
2023-02-04T02:12:09.591Z,12.25
2023-02-04T02:14:45.778Z,11.18
2023-02-04T02:17:19.899Z,10.60
2023-02-04T02:19:49.323Z,9.00
2023-02-04T02:22:25.612Z,9.32
2023-02-04T02:25:02.299Z,10.65
2023-02-04T02:27:32.157Z,9.00
2023-02-04T02:30:01.673Z,9.82
2023-02-04T02:32:32.950Z,11.38
2023-02-04T02:35:02.195Z,10.32
2023-02-04T02:37:34.717Z,10.30
2023-02-04T02:40:12.783Z,9.40
2023-02-04T02:42:44.579Z,9.30
2023-02-04T02:45:25.222Z,8.23
2023-02-04T02:47:54.914Z,10.73
2023-02-04T02:50:27.785Z,10.65
2023-02-04T02:53:04.237Z,10.05
2023-02-04T02:55:35.927Z,11.05
2023-02-04T02:58:07.285Z,8.95
2023-02-04T03:00:36.437Z,9.18
2023-02-04T03:03:15.551Z,10.30
2023-02-04T03:05:48.444Z,9.88
2023-02-04T03:08:19.095Z,10.40
2023-02-04T03:10:50.734Z,10.77
2023-02-04T03:13:20.994Z,8.27
2023-02-04T03:15:51.593Z,8.75
2023-02-04T03:18:22.595Z,12.60
2023-02-04T03:20:53.239Z,12.03
2023-02-04T03:23:22.886Z,8.70
2023-02-04T03:25:54.192Z,9.07
2023-02-04T03:28:23.353Z,10.63
2023-02-04T03:33:35.622Z,9.65
2023-02-04T03:36:04.860Z,9.35
2023-02-04T03:38:34.349Z,10.38
2023-02-04T03:41:11.570Z,8.77
2023-02-04T03:43:40.818Z,10.45
2023-02-04T03:46:10.583Z,8.88
2023-02-04T03:48:39.828Z,10.43
2023-02-04T03:51:18.802Z,11.98
2023-02-04T03:53:48.046Z,11.65
2023-02-04T03:56:22.217Z,11.55
2023-02-04T03:58:51.590Z,13.35
2023-02-04T04:01:20.703Z,10.43
2023-02-04T04:06:24.897Z,16.55
2023-02-04T04:08:53.923Z,10.15
2023-02-04T04:11:31.116Z,10.88
2023-02-04T04:14:00.921Z,12.02
2023-02-04T04:16:30.041Z,13.60
2023-02-04T04:18:59.626Z,9.80
2023-02-04T04:21:28.801Z,13.50
2023-02-04T04:24:09.818Z,12.00
2023-02-04T04:26:41.222Z,10.77
2023-02-04T04:29:10.389Z,10.32
2023-02-04T04:31:39.648Z,12.23
2023-02-04T04:34:08.837Z,12.30
2023-02-04T04:36:37.922Z,8.80
2023-02-04T04:39:07.093Z,11.55
2023-02-04T04:41:36.130Z,11.25
2023-02-04T04:44:09.707Z,13.00
2023-02-04T04:46:40.243Z,13.52
2023-02-04T04:49:09.914Z,11.40
2023-02-04T04:51:39.000Z,10.20
2023-02-04T04:54:08.267Z,12.45
2023-02-04T04:56:43.391Z,10.90
2023-02-04T04:59:14.558Z,8.90
2023-02-04T05:01:44.280Z,9.00
2023-02-04T05:04:13.687Z,8.93
2023-02-04T05:06:42.779Z,7.20
2023-02-04T05:09:12.009Z,8.25
2023-02-04T05:11:41.208Z,5.97
2023-02-04T05:14:10.412Z,8.18
2023-02-04T05:16:41.394Z,7.60
2023-02-04T05:19:10.597Z,7.82
2023-02-04T05:21:39.710Z,9.27
2023-02-04T05:26:44.043Z,8.95
2023-02-04T05:29:13.039Z,9.32
2023-02-04T05:31:44.474Z,9.57
2023-02-04T05:34:13.808Z,8.23
2023-02-04T05:36:42.957Z,12.65
2023-02-04T05:39:12.155Z,13.73
2023-02-04T05:41:41.381Z,9.57
2023-02-04T05:44:11.132Z,9.70
2023-02-04T05:46:40.569Z,8.43
2023-02-04T05:49:11.621Z,9.50
2023-02-04T05:51:45.985Z,11.05
2023-02-04T05:54:20.370Z,13.07
2023-02-04T05:56:56.355Z,9.15
2023-02-04T05:59:25.505Z,9.00
2023-02-04T06:01:54.517Z,8.35
2023-02-04T06:04:30.779Z,8.23
2023-02-04T06:07:00.394Z,9.15
2023-02-04T06:09:29.545Z,10.88
2023-02-04T06:11:58.755Z,11.75
2023-02-04T06:14:27.824Z,11.20
2023-02-04T06:16:57.114Z,10.70
2023-02-04T06:19:26.403Z,9.73
2023-02-04T06:21:57.460Z,11.27
2023-02-04T06:24:26.839Z,10.27
2023-02-04T06:26:58.074Z,12.18
2023-02-04T06:29:32.287Z,16.67
2023-02-04T06:32:01.537Z,18.52
2023-02-04T06:34:35.798Z,18.67
2023-02-04T06:37:06.890Z,17.92
2023-02-04T06:39:36.226Z,15.75
2023-02-04T06:42:06.066Z,14.48
2023-02-04T06:44:35.512Z,14.20
2023-02-04T06:47:09.880Z,15.13
2023-02-04T06:49:39.371Z,19.20
2023-02-04T06:52:10.608Z,16.85
2023-02-04T06:54:40.192Z,17.75
2023-02-04T06:57:09.285Z,18.00
2023-02-04T06:59:40.130Z,18.40
2023-02-04T07:02:11.051Z,18.67
2023-02-04T07:04:41.629Z,17.10
2023-02-04T07:07:12.928Z,17.15
2023-02-04T07:09:42.232Z,16.52
2023-02-04T07:12:11.340Z,15.75
2023-02-04T07:14:40.565Z,18.40
2023-02-04T07:17:09.722Z,19.15
2023-02-04T07:19:39.136Z,16.38
2023-02-04T07:22:08.304Z,21.98
2023-02-04T07:24:39.713Z,22.70
2023-02-04T07:27:08.986Z,23.83
2023-02-04T07:29:37.986Z,25.60
2023-02-04T07:32:07.504Z,21.17
2023-02-04T07:34:36.783Z,20.70
2023-02-04T07:37:06.017Z,24.02
2023-02-04T07:39:35.106Z,21.90
2023-02-04T07:42:06.213Z,24.88
2023-02-04T07:44:45.106Z,19.35
2023-02-04T07:47:14.756Z,21.27
2023-02-04T07:49:44.404Z,18.58
2023-02-04T07:52:14.049Z,19.50
2023-02-04T07:54:43.244Z,18.95
2023-02-04T07:57:14.251Z,17.33
2023-02-04T07:59:43.426Z,18.30
2023-02-04T08:02:20.354Z,13.40
2023-02-04T08:04:49.950Z,15.35
2023-02-04T08:07:19.108Z,13.40
2023-02-04T08:09:48.516Z,12.85
2023-02-04T08:12:19.648Z,14.00
2023-02-04T08:14:48.884Z,14.25
2023-02-04T08:17:17.993Z,16.00
2023-02-04T08:19:47.119Z,15.95
2023-02-04T08:22:16.359Z,17.17
2023-02-04T08:24:45.542Z,22.38
2023-02-04T08:27:14.704Z,15.90
2023-02-04T08:29:51.184Z,12.40
2023-02-04T08:32:26.574Z,11.25
2023-02-04T08:35:06.592Z,11.05
2023-02-04T08:37:36.199Z,12.30
2023-02-04T08:40:05.894Z,14.80
2023-02-04T08:42:35.313Z,15.50
2023-02-04T08:45:07.025Z,14.63
2023-02-04T08:47:38.983Z,19.05
2023-02-04T08:50:09.514Z,18.02
2023-02-04T08:52:38.719Z,21.08
2023-02-04T08:55:15.550Z,18.73
2023-02-04T08:57:44.699Z,20.20
2023-02-04T09:00:18.356Z,25.67
2023-02-04T09:02:57.653Z,31.25
2023-02-04T09:05:26.954Z,34.03
2023-02-04T09:07:56.544Z,33.40
2023-02-04T09:10:25.723Z,35.28
2023-02-04T09:12:55.707Z,32.17
2023-02-04T09:15:27.585Z,27.48
2023-02-04T09:18:11.133Z,29.05
2023-02-04T09:20:40.428Z,27.35
2023-02-04T09:23:11.616Z,31.13
2023-02-04T09:25:41.073Z,28.25
2023-02-04T09:28:12.154Z,27.45
2023-02-04T09:30:45.808Z,31.13
2023-02-04T09:33:17.399Z,29.15
2023-02-04T09:35:51.491Z,36.13
2023-02-04T09:38:21.760Z,36.15
2023-02-04T09:40:56.557Z,34.72
2023-02-04T09:43:33.635Z,39.00
2023-02-04T09:46:05.415Z,33.03
2023-02-04T09:51:07.745Z,34.78
2023-02-04T09:53:47.325Z,29.80
2023-02-04T09:56:16.868Z,22.80
2023-02-04T09:58:46.372Z,20.20
2023-02-04T10:01:20.447Z,20.92
2023-02-04T10:03:51.833Z,14.65
2023-02-04T10:06:23.127Z,15.20
2023-02-04T10:08:53.980Z,14.45
2023-02-04T10:11:29.570Z,16.13
2023-02-04T10:13:58.921Z,19.58
2023-02-04T10:16:33.517Z,15.70
2023-02-04T10:19:09.532Z,19.20
2023-02-04T10:21:45.926Z,17.92
2023-02-04T10:24:18.101Z,15.57
2023-02-04T11:29:38.358Z,16.10
2023-02-04T11:32:14.846Z,16.58
2023-02-04T11:34:51.115Z,15.35
2023-02-04T11:37:39.519Z,14.75
2023-02-04T11:40:25.249Z,14.95
2023-02-04T11:43:03.256Z,16.35
2023-02-04T11:45:46.564Z,14.90
2023-02-04T11:48:19.761Z,12.60
2023-02-04T11:50:57.574Z,20.65
2023-02-04T11:53:30.695Z,14.15
2023-02-04T11:56:00.543Z,14.55
2023-02-04T11:58:31.937Z,13.23
2023-02-04T12:01:03.183Z,14.93
2023-02-04T12:03:34.583Z,15.38
2023-02-04T12:06:04.573Z,16.83
2023-02-04T12:08:36.059Z,18.60
2023-02-04T12:11:10.747Z,20.80
2023-02-04T12:13:49.125Z,15.95
2023-02-04T12:16:23.032Z,23.45
2023-02-04T12:18:52.868Z,20.38
2023-02-04T12:21:22.486Z,18.55
2023-02-04T12:23:57.517Z,22.27
2023-02-04T12:26:26.706Z,22.80
2023-02-04T12:28:57.003Z,20.67
2023-02-04T12:31:28.280Z,23.20
2023-02-04T12:33:57.934Z,24.15
2023-02-04T12:36:29.309Z,23.98
2023-02-04T12:38:59.503Z,26.65
2023-02-04T12:41:28.982Z,27.02
2023-02-04T12:43:58.099Z,28.83
2023-02-04T12:53:53.042Z,26.58
2023-02-04T12:56:23.790Z,28.73
2023-02-04T12:58:53.854Z,24.23
2023-02-04T13:01:22.937Z,26.17
2023-02-04T13:03:51.998Z,33.58
2023-02-04T13:06:21.290Z,30.45
2023-02-04T13:08:52.436Z,26.15
2023-02-04T13:11:26.731Z,29.25
2023-02-04T13:13:55.839Z,28.10
2023-02-04T13:16:25.826Z,28.13
2023-02-04T13:18:54.908Z,26.55
2023-02-04T13:21:28.352Z,29.55
2023-02-04T13:23:59.667Z,29.92
2023-02-04T13:26:29.160Z,28.58
2023-02-04T13:28:58.169Z,26.33
2023-02-04T13:31:27.585Z,29.25
2023-02-04T13:33:56.681Z,27.40
2023-02-04T13:36:27.366Z,25.98
2023-02-04T13:38:59.831Z,27.27
2023-02-04T13:41:35.699Z,31.08
2023-02-04T13:44:10.076Z,29.77
2023-02-04T13:46:39.312Z,26.67
2023-02-04T13:49:10.107Z,35.10
2023-02-04T13:51:39.461Z,36.22
2023-02-04T13:54:10.859Z,34.13
2023-02-04T13:56:40.721Z,32.83
2023-02-04T13:59:10.025Z,35.17
2023-02-04T14:01:39.391Z,28.95
2023-02-04T14:04:08.544Z,32.50
2023-02-04T14:06:43.067Z,35.83
2023-02-04T14:09:14.613Z,35.83
2023-02-04T14:11:44.228Z,44.25
2023-02-04T14:14:13.359Z,43.30
2023-02-04T14:16:42.839Z,44.22
2023-02-04T14:19:23.807Z,45.90
2023-02-04T14:21:53.694Z,47.40
2023-02-04T14:24:25.290Z,42.75
2023-02-04T14:26:55.769Z,41.50
2023-02-04T14:29:24.856Z,42.40
2023-02-04T14:31:54.028Z,42.40
2023-02-04T14:34:23.072Z,40.08
2023-02-04T14:39:33.842Z,38.72
2023-02-04T14:42:04.875Z,39.00
2023-02-04T14:44:34.043Z,36.17
2023-02-04T14:47:03.111Z,38.20
2023-02-04T14:49:36.843Z,32.47
2023-02-04T14:52:06.844Z,34.67
2023-02-04T14:54:38.165Z,31.60
2023-02-04T14:57:10.850Z,31.50
2023-02-04T14:59:40.083Z,37.90
2023-02-04T15:02:09.264Z,33.55
2023-02-04T15:04:43.592Z,30.35
2023-02-04T15:07:26.688Z,33.28
2023-02-04T15:10:02.961Z,32.67
2023-02-04T15:12:33.108Z,29.55
2023-02-04T15:15:02.253Z,27.17
2023-02-04T15:17:36.629Z,31.60
2023-02-04T15:20:08.144Z,29.35
2023-02-04T15:22:39.610Z,28.02
2023-02-04T15:25:11.878Z,28.48
2023-02-04T15:27:47.071Z,24.40
2023-02-04T15:30:16.414Z,28.35
2023-02-04T15:32:47.162Z,25.50
2023-02-04T15:35:19.154Z,24.15
2023-02-04T15:38:14.289Z,24.83
2023-02-04T15:40:45.499Z,27.45
2023-02-04T15:43:14.634Z,23.92
2023-02-04T15:45:43.967Z,23.35
2023-02-04T15:48:19.279Z,25.85
2023-02-04T15:50:48.411Z,27.92
2023-02-04T15:53:17.967Z,32.13
2023-02-04T15:55:54.285Z,29.92
2023-02-04T15:58:23.543Z,29.55
2023-02-04T16:00:52.736Z,30.73
2023-02-04T16:03:27.033Z,27.45
2023-02-04T16:05:57.086Z,23.45
2023-02-04T16:08:31.423Z,23.48
2023-02-04T16:11:02.437Z,32.15
2023-02-04T16:13:31.712Z,27.95
2023-02-04T16:16:00.863Z,32.20
2023-02-04T16:18:33.841Z,25.88
2023-02-04T16:21:02.943Z,31.52
2023-02-04T16:26:18.786Z,29.98
2023-02-04T16:28:48.335Z,35.38
2023-02-04T16:31:17.766Z,31.30
2023-02-04T16:33:46.992Z,30.52
2023-02-04T16:36:18.258Z,35.97
2023-02-04T16:38:47.974Z,30.08
2023-02-04T16:41:21.325Z,29.08
2023-02-04T16:43:50.719Z,31.60
2023-02-04T16:46:20.021Z,31.80
2023-02-04T16:48:49.490Z,27.90
2023-02-04T16:51:20.005Z,27.05
2023-02-04T16:53:50.017Z,27.83
2023-02-04T16:56:21.165Z,28.30
2023-02-04T16:58:50.354Z,26.77
2023-02-04T17:01:19.567Z,26.35
2023-02-04T17:03:48.773Z,25.33
2023-02-04T17:06:18.521Z,30.55
2023-02-04T17:08:47.744Z,30.63
2023-02-04T17:11:31.983Z,30.08
2023-02-04T17:14:05.572Z,21.83
2023-02-04T17:16:35.122Z,29.13
2023-02-04T17:19:05.065Z,24.77
2023-02-04T17:21:37.606Z,25.73
2023-02-04T17:24:07.409Z,29.65
2023-02-04T17:26:39.583Z,30.52
2023-02-04T17:29:21.497Z,21.98
2023-02-04T17:31:52.371Z,27.65
2023-02-04T17:34:21.773Z,27.60
2023-02-04T17:36:51.074Z,30.13
2023-02-04T17:39:20.300Z,21.08
2023-02-04T17:41:49.376Z,27.38
2023-02-04T17:44:23.988Z,27.88
2023-02-04T17:46:54.156Z,21.02
2023-02-04T17:49:23.483Z,23.13
2023-02-04T17:51:52.714Z,24.58
2023-02-04T17:54:21.984Z,22.35
2023-02-04T17:56:52.518Z,24.58
2023-02-04T17:59:23.838Z,27.67
2023-02-04T18:01:53.295Z,21.17
2023-02-04T18:04:22.661Z,22.55
2023-02-04T18:06:58.977Z,24.10
2023-02-04T18:09:28.899Z,25.25
2023-02-04T18:12:14.783Z,27.45
2023-02-04T18:14:51.807Z,25.48
2023-02-04T18:17:21.219Z,30.60
2023-02-04T18:19:51.659Z,30.00
2023-02-04T18:22:25.602Z,28.05
2023-02-04T18:24:57.388Z,29.67
2023-02-04T18:27:33.070Z,27.05
2023-02-04T18:30:04.219Z,26.38
2023-02-04T18:32:38.998Z,29.65
2023-02-04T18:35:36.358Z,24.05
2023-02-04T18:40:46.840Z,30.15
2023-02-04T18:43:29.996Z,24.85
2023-02-04T18:46:24.515Z,29.05
2023-02-04T18:52:17.324Z,27.38
2023-02-04T18:54:57.630Z,30.38
2023-02-04T19:00:32.330Z,31.85
2023-02-04T19:03:21.793Z,35.73
2023-02-04T19:05:51.505Z,26.25
2023-02-04T19:08:26.757Z,26.65
2023-02-04T19:10:57.750Z,28.40
2023-02-04T19:13:29.083Z,25.17
2023-02-04T19:16:02.728Z,25.05
2023-02-04T19:18:41.473Z,28.48
2023-02-04T19:21:24.887Z,23.27
2023-02-04T19:23:58.193Z,32.38
2023-02-04T19:26:34.145Z,25.60
2023-02-04T19:29:03.481Z,30.55
2023-02-04T19:31:35.571Z,28.70
2023-02-04T19:34:22.978Z,27.55
2023-02-04T19:36:52.871Z,30.73
2023-02-04T19:39:32.331Z,27.88
2023-02-04T19:42:02.861Z,26.23
2023-02-04T19:44:39.542Z,31.90
2023-02-04T19:47:25.570Z,27.98
2023-02-04T19:50:03.432Z,26.60
2023-02-04T19:52:38.307Z,26.67
2023-02-04T19:55:37.174Z,30.70
2023-02-04T19:58:18.070Z,33.35
2023-02-04T20:00:52.692Z,24.60
2023-02-04T20:03:30.863Z,26.75
2023-02-04T20:06:22.108Z,26.75
2023-02-04T20:08:57.247Z,33.85
2023-02-04T20:11:44.869Z,29.75
2023-02-04T20:14:51.609Z,27.63
2023-02-04T20:17:35.965Z,24.15
2023-02-04T20:20:28.914Z,27.10
2023-02-04T20:23:01.838Z,24.10
2023-02-04T20:25:39.816Z,26.75
2023-02-04T20:28:40.319Z,28.52
2023-02-04T20:31:28.256Z,24.75
2023-02-04T20:33:59.587Z,25.80
2023-02-04T20:36:44.162Z,27.05
2023-02-04T20:39:36.764Z,25.05
2023-02-04T20:42:33.644Z,23.92
2023-02-04T20:45:34.314Z,29.75
2023-02-04T20:48:28.257Z,22.58
2023-02-04T20:51:00.926Z,20.15
2023-02-04T20:53:32.052Z,22.50
2023-02-04T20:56:17.628Z,22.35
2023-02-04T20:58:48.047Z,25.35
2023-02-04T21:01:24.369Z,20.90
2023-02-04T21:03:53.733Z,20.00
2023-02-04T21:06:29.374Z,20.40
2023-02-04T21:09:00.016Z,19.95
2023-02-04T21:11:31.444Z,19.75
2023-02-04T21:14:05.729Z,19.45
2023-02-04T21:16:35.227Z,25.08
2023-02-04T21:19:06.246Z,25.52
2023-02-04T21:21:35.989Z,27.13
2023-02-04T21:24:05.261Z,16.48
2023-02-04T21:26:38.108Z,17.65
2023-02-04T21:29:07.942Z,21.10
2023-02-04T21:31:37.510Z,18.75
2023-02-04T21:34:06.836Z,22.58
2023-02-04T21:36:36.188Z,22.85
2023-02-04T21:39:16.675Z,18.83
2023-02-04T21:42:08.231Z,19.60
2023-02-04T21:44:47.512Z,25.13
2023-02-04T21:47:17.269Z,27.75
2023-02-04T21:49:52.102Z,23.13
2023-02-04T21:52:21.380Z,22.70
2023-02-04T21:54:50.511Z,23.90
2023-02-04T21:57:21.579Z,21.75
2023-02-04T21:59:50.800Z,24.00
2023-02-04T22:02:19.879Z,19.63
2023-02-04T22:04:51.469Z,22.88
2023-02-04T22:07:21.283Z,27.27
2023-02-04T22:09:50.468Z,24.70
2023-02-04T22:12:27.345Z,24.70
2023-02-04T22:15:04.279Z,22.80
2023-02-04T22:20:09.537Z,23.20
2023-02-04T22:22:38.542Z,24.88
2023-02-04T22:25:08.388Z,28.02
2023-02-04T22:27:40.733Z,27.20
2023-02-04T22:30:20.163Z,23.58
2023-02-04T22:32:49.400Z,26.70
2023-02-04T22:35:19.313Z,28.48
2023-02-04T22:37:49.531Z,20.73
2023-02-04T22:40:18.933Z,24.42
2023-02-04T22:43:00.162Z,25.63
2023-02-04T22:45:34.566Z,25.63
2023-02-04T22:48:03.990Z,24.35
2023-02-04T22:50:33.209Z,27.88
2023-02-04T22:53:08.415Z,22.17
2023-02-04T22:55:37.447Z,30.58
2023-02-04T22:58:08.829Z,28.67
2023-02-04T23:00:38.085Z,15.93
2023-02-04T23:03:07.670Z,20.17
2023-02-04T23:05:37.225Z,22.50
2023-02-04T23:08:06.775Z,16.20
2023-02-04T23:10:38.096Z,15.20
2023-02-04T23:13:10.314Z,23.88
2023-02-04T23:15:40.460Z,19.90
2023-02-04T23:18:09.578Z,25.65
2023-02-04T23:20:41.291Z,25.33
2023-02-04T23:25:51.532Z,17.70
2023-02-04T23:28:22.916Z,22.40
2023-02-04T23:30:58.211Z,20.27
2023-02-04T23:33:27.632Z,14.75
2023-02-04T23:35:56.844Z,17.10
2023-02-04T23:38:26.204Z,18.42
2023-02-04T23:40:56.697Z,16.88
2023-02-04T23:43:28.153Z,18.63
2023-02-04T23:45:59.581Z,18.83
2023-02-04T23:48:29.077Z,18.55
2023-02-04T23:50:58.836Z,12.55
2023-02-04T23:53:27.924Z,17.33
2023-02-04T23:55:57.016Z,19.08
2023-02-04T23:58:28.405Z,23.25
